createdAt,value
2024-01-05T00:00:51.901Z,8.70
2024-01-05T00:03:19.058Z,13.30
2024-01-05T00:05:32.338Z,12.80
2024-01-05T00:07:46.340Z,11.80
2024-01-05T00:09:59.435Z,3.60
2024-01-05T00:12:13.394Z,2.00
2024-01-05T00:14:26.524Z,4.20
2024-01-05T00:16:39.881Z,11.40
2024-01-05T00:18:53.819Z,5.30
2024-01-05T00:21:07.146Z,6.20
2024-01-05T00:23:20.417Z,2.50
2024-01-05T00:25:33.517Z,3.00
2024-01-05T00:27:46.504Z,2.80
2024-01-05T00:29:59.492Z,2.50
2024-01-05T00:32:14.952Z,2.20
2024-01-05T00:34:29.312Z,1.90
2024-01-05T00:36:43.969Z,5.50
2024-01-05T00:38:57.393Z,8.10
2024-01-05T00:41:10.805Z,9.30
2024-01-05T00:43:23.921Z,9.50
2024-01-05T00:45:36.948Z,7.00
2024-01-05T00:47:50.290Z,14.40
2024-01-05T00:50:03.426Z,7.70
2024-01-05T00:52:17.121Z,7.10
2024-01-05T00:54:30.447Z,11.70
2024-01-05T00:56:44.090Z,7.40
2024-01-05T00:58:57.465Z,1.80
2024-01-05T01:01:13.168Z,1.50
2024-01-05T01:03:26.176Z,1.60
2024-01-05T01:05:39.561Z,1.70
2024-01-05T01:07:52.695Z,1.70
2024-01-05T01:10:05.635Z,1.80
2024-01-05T01:12:19.348Z,1.20
2024-01-05T01:14:32.508Z,2.10
2024-01-05T01:16:45.416Z,1.20
2024-01-05T01:18:58.561Z,2.60
2024-01-05T01:21:12.039Z,1.30
2024-01-05T01:23:25.354Z,2.00
2024-01-05T01:25:38.793Z,1.50
2024-01-05T01:27:52.538Z,1.20
2024-01-05T01:30:05.634Z,1.70
2024-01-05T01:32:18.941Z,1.40
2024-01-05T01:34:32.051Z,1.60
2024-01-05T01:36:45.330Z,1.60
2024-01-05T01:38:58.941Z,2.20
2024-01-05T01:41:12.071Z,1.40
2024-01-05T01:43:30.382Z,1.50
2024-01-05T01:45:43.475Z,1.70
2024-01-05T01:47:57.918Z,1.50
2024-01-05T01:50:12.564Z,1.50
2024-01-05T01:52:25.906Z,1.50
2024-01-05T01:54:40.268Z,1.70
2024-01-05T01:56:55.094Z,1.00
2024-01-05T01:59:09.764Z,1.50
2024-01-05T02:01:23.089Z,1.50
2024-01-05T02:03:36.486Z,2.80
2024-01-05T02:05:50.938Z,1.30
2024-01-05T02:08:05.281Z,1.00
2024-01-05T02:10:18.557Z,1.40
2024-01-05T02:12:31.902Z,1.60
2024-01-05T02:14:45.978Z,1.50
2024-01-05T02:16:59.067Z,2.20
2024-01-05T02:19:12.385Z,1.80
2024-01-05T02:21:35.394Z,1.40
2024-01-05T02:23:48.301Z,1.50
2024-01-05T02:26:03.000Z,1.10
2024-01-05T02:28:16.470Z,1.40
2024-01-05T02:30:29.401Z,1.60
2024-01-05T02:32:42.569Z,1.40
2024-01-05T02:34:55.544Z,1.10
2024-01-05T02:37:08.515Z,1.70
2024-01-05T02:39:21.590Z,1.70
2024-01-05T02:41:37.404Z,1.10
2024-01-05T02:43:51.316Z,1.50
2024-01-05T02:46:04.207Z,1.50
2024-01-05T02:48:18.122Z,1.30
2024-01-05T02:50:31.081Z,1.30
2024-01-05T02:52:44.962Z,1.70
2024-01-05T02:54:58.056Z,1.40
2024-01-05T02:57:11.515Z,2.30
2024-01-05T02:59:24.948Z,1.40
2024-01-05T03:01:38.299Z,1.70
2024-01-05T03:03:52.599Z,1.20
2024-01-05T03:06:05.664Z,1.40
2024-01-05T03:08:19.083Z,1.20
2024-01-05T03:10:32.105Z,1.50
2024-01-05T03:12:45.302Z,1.30
2024-01-05T03:14:58.355Z,2.10
2024-01-05T03:17:11.972Z,1.40
2024-01-05T03:19:25.229Z,3.00
2024-01-05T03:21:38.704Z,2.50
2024-01-05T03:23:52.442Z,3.90
2024-01-05T03:26:05.368Z,1.40
2024-01-05T03:28:18.832Z,1.90
2024-01-05T03:30:32.263Z,1.80
2024-01-05T03:32:46.281Z,2.00
2024-01-05T03:34:59.319Z,2.40
2024-01-05T03:37:12.401Z,1.40
2024-01-05T03:39:25.456Z,2.30
2024-01-05T03:41:39.628Z,1.40
2024-01-05T03:43:53.260Z,1.80
2024-01-05T03:46:06.444Z,1.50
2024-01-05T03:48:19.714Z,2.00
2024-01-05T03:50:32.857Z,1.90
2024-01-05T03:52:46.040Z,1.60
2024-01-05T03:54:59.155Z,1.20
2024-01-05T03:57:12.399Z,1.50
2024-01-05T03:59:25.482Z,1.90
2024-01-05T04:01:46.077Z,1.80
2024-01-05T04:04:00.085Z,1.50
2024-01-05T04:06:22.117Z,1.10
2024-01-05T04:08:35.368Z,1.80
2024-01-05T04:10:48.804Z,1.50
2024-01-05T04:13:03.074Z,1.40
2024-01-05T04:15:16.642Z,2.40
2024-01-05T04:17:29.663Z,1.40
2024-01-05T04:19:42.698Z,1.20
2024-01-05T04:21:56.238Z,2.70
2024-01-05T04:24:09.938Z,1.20
2024-01-05T04:26:23.075Z,1.60
2024-01-05T04:28:36.340Z,1.80
2024-01-05T04:30:49.535Z,1.50
2024-01-05T04:33:03.587Z,1.70
2024-01-05T04:35:17.129Z,1.50
2024-01-05T04:37:30.346Z,2.40
2024-01-05T04:39:46.044Z,2.00
2024-01-05T04:41:59.030Z,2.00
2024-01-05T04:44:12.631Z,1.40
2024-01-05T04:46:25.979Z,1.70
2024-01-05T04:48:40.009Z,3.30
2024-01-05T04:50:53.809Z,1.20
2024-01-05T04:53:07.158Z,1.70
2024-01-05T04:55:20.553Z,1.80
2024-01-05T04:57:34.129Z,2.40
2024-01-05T04:59:48.650Z,2.00
2024-01-05T05:02:02.750Z,2.40
2024-01-05T05:04:16.971Z,2.00
2024-01-05T05:06:30.275Z,2.20
2024-01-05T05:08:43.676Z,1.80
2024-01-05T05:10:56.730Z,2.50
2024-01-05T05:13:09.982Z,2.40
2024-01-05T05:15:23.269Z,2.70
2024-01-05T05:17:36.322Z,1.80
2024-01-05T05:19:50.725Z,2.70
2024-01-05T05:22:04.237Z,2.10
2024-01-05T05:24:17.284Z,3.00
2024-01-05T05:26:30.662Z,2.20
2024-01-05T05:28:43.816Z,2.10
2024-01-05T05:30:56.933Z,3.00
2024-01-05T05:33:10.676Z,3.00
2024-01-05T05:35:24.095Z,1.50
2024-01-05T05:37:37.033Z,2.50
2024-01-05T05:39:51.292Z,2.20
2024-01-05T05:42:26.098Z,2.00
2024-01-05T05:44:59.881Z,2.20
2024-01-05T05:48:25.621Z,2.30
2024-01-05T05:50:29.264Z,2.10
2024-01-05T05:53:06.156Z,2.00
2024-01-05T05:55:41.889Z,2.90
2024-01-05T05:58:29.357Z,1.80
2024-01-05T06:01:03.544Z,3.70
2024-01-05T06:03:38.622Z,2.60
2024-01-05T06:06:24.963Z,2.30
2024-01-05T06:08:53.836Z,3.00
2024-01-05T06:11:29.132Z,4.10
2024-01-05T06:13:56.072Z,2.90
2024-01-05T06:16:32.793Z,2.50
2024-01-05T06:19:06.560Z,2.20
2024-01-05T06:21:40.891Z,3.40
2024-01-05T06:24:16.030Z,2.60
2024-01-05T06:26:43.865Z,2.70
2024-01-05T06:29:06.742Z,2.90
2024-01-05T06:31:41.724Z,4.50
2024-01-05T06:34:17.101Z,4.10
2024-01-05T06:36:52.304Z,4.10
2024-01-05T06:39:29.086Z,3.90
2024-01-05T06:42:05.099Z,3.80
2024-01-05T06:44:34.470Z,2.50
2024-01-05T06:47:09.679Z,2.60
2024-01-05T06:49:44.402Z,2.20
2024-01-05T06:52:19.140Z,3.60
2024-01-05T06:54:48.264Z,2.70
2024-01-05T06:57:23.530Z,3.60
2024-01-05T06:59:51.169Z,3.00
2024-01-05T07:02:26.081Z,2.40
2024-01-05T07:05:00.540Z,2.50
2024-01-05T07:07:42.044Z,2.40
2024-01-05T07:10:17.126Z,4.30
2024-01-05T07:12:52.137Z,2.60
2024-01-05T07:15:20.711Z,2.80
2024-01-05T07:17:56.088Z,4.00
2024-01-05T07:20:59.920Z,2.00
2024-01-05T07:23:15.839Z,2.10
2024-01-05T07:25:50.630Z,5.90
2024-01-05T07:28:25.836Z,10.90
2024-01-05T07:31:00.201Z,9.30
2024-01-05T07:33:34.511Z,3.70
2024-01-05T07:36:12.227Z,8.10
2024-01-05T07:38:47.001Z,13.20
2024-01-05T07:41:25.855Z,13.80
2024-01-05T07:44:00.983Z,8.20
2024-01-05T07:46:35.641Z,8.10
2024-01-05T07:49:00.002Z,8.00
2024-01-05T07:51:34.296Z,21.60
2024-01-05T07:54:02.170Z,17.10
2024-01-05T07:56:40.418Z,9.00
2024-01-05T07:59:13.459Z,12.20
2024-01-05T08:01:34.529Z,13.90
2024-01-05T08:03:57.227Z,17.40
2024-01-05T08:06:15.033Z,10.20
2024-01-05T08:08:32.468Z,8.50
2024-01-05T08:10:48.879Z,4.70
2024-01-05T08:13:28.322Z,4.40
2024-01-05T08:16:03.506Z,3.70
2024-01-05T08:18:29.120Z,4.00
2024-01-05T08:21:04.849Z,4.00
2024-01-05T08:23:33.328Z,4.30
2024-01-05T08:26:07.967Z,4.00
2024-01-05T08:28:42.220Z,6.70
2024-01-05T08:31:10.610Z,10.20
2024-01-05T08:33:46.022Z,12.20
2024-01-05T08:36:20.315Z,16.50
2024-01-05T08:38:55.362Z,14.40
2024-01-05T08:41:17.946Z,9.70
2024-01-05T08:43:54.223Z,13.60
2024-01-05T08:46:16.946Z,12.10
2024-01-05T08:48:41.298Z,11.50
2024-01-05T08:50:57.918Z,11.90
2024-01-05T08:53:32.457Z,11.30
2024-01-05T08:56:05.036Z,14.00
2024-01-05T08:58:32.878Z,7.70
2024-01-05T09:01:03.753Z,10.60
2024-01-05T09:03:39.802Z,11.60
2024-01-05T09:06:17.040Z,7.90
2024-01-05T09:08:44.643Z,9.00
2024-01-05T09:11:10.093Z,12.70
2024-01-05T09:13:44.114Z,12.50
2024-01-05T09:16:06.477Z,9.20
2024-01-05T09:18:36.403Z,6.30
2024-01-05T09:21:02.325Z,6.80
2024-01-05T09:23:20.314Z,7.00
2024-01-05T09:25:41.341Z,8.20
2024-01-05T09:28:17.831Z,5.00
2024-01-05T09:30:34.745Z,6.30
2024-01-05T09:33:06.614Z,3.80
2024-01-05T09:35:42.099Z,6.30
2024-01-05T09:38:19.583Z,4.30
2024-01-05T09:40:55.971Z,4.20
2024-01-05T09:43:32.224Z,4.80
2024-01-05T09:46:06.624Z,6.90
2024-01-05T09:48:39.969Z,3.60
2024-01-05T09:51:23.783Z,2.40
2024-01-05T09:53:58.628Z,4.90
2024-01-05T09:56:26.446Z,5.00
2024-01-05T09:59:00.536Z,3.50
2024-01-05T10:01:41.698Z,8.10
2024-01-05T10:04:11.588Z,4.60
2024-01-05T10:06:39.200Z,5.40
2024-01-05T10:08:59.075Z,5.30
2024-01-05T10:11:37.681Z,4.80
2024-01-05T10:14:15.567Z,6.20
2024-01-05T10:16:50.140Z,5.30
2024-01-05T10:19:24.835Z,6.30
2024-01-05T10:21:58.163Z,4.30
2024-01-05T10:24:32.591Z,5.00
2024-01-05T10:27:04.668Z,7.50
2024-01-05T10:29:27.776Z,5.40
2024-01-05T10:31:43.164Z,3.70
2024-01-05T10:34:18.351Z,7.90
2024-01-05T10:36:41.414Z,9.60
2024-01-05T10:39:16.874Z,4.20
2024-01-05T10:41:51.490Z,5.20
2024-01-05T10:44:29.513Z,12.70
2024-01-05T10:46:47.843Z,9.90
2024-01-05T10:49:01.878Z,10.30
2024-01-05T10:51:21.432Z,13.30
2024-01-05T10:53:38.649Z,10.10
2024-01-05T10:55:53.890Z,15.80
2024-01-05T10:58:27.875Z,13.30
2024-01-05T11:00:42.748Z,11.20
2024-01-05T11:03:00.083Z,14.00
2024-01-05T11:05:36.335Z,9.20
2024-01-05T11:07:52.856Z,9.80
2024-01-05T11:10:26.176Z,14.30
2024-01-05T11:13:13.872Z,20.10
2024-01-05T11:15:48.049Z,15.60
2024-01-05T11:18:52.432Z,14.40
2024-01-05T11:21:40.685Z,7.40
2024-01-05T11:24:20.060Z,9.40
2024-01-05T11:26:41.480Z,10.60
2024-01-05T11:28:56.243Z,12.70
2024-01-05T11:31:14.259Z,11.80
2024-01-05T11:33:55.260Z,18.50
2024-01-05T11:36:12.441Z,14.10
2024-01-05T11:38:38.691Z,12.50
2024-01-05T11:41:23.457Z,21.10
2024-01-05T11:43:48.186Z,18.00
2024-01-05T11:46:06.045Z,15.70
2024-01-05T11:48:56.213Z,25.70
2024-01-05T11:51:29.702Z,18.10
2024-01-05T11:53:48.271Z,20.80
2024-01-05T11:56:05.634Z,20.70
2024-01-05T11:58:30.833Z,19.50
2024-01-05T12:00:47.604Z,16.00
2024-01-05T12:03:11.155Z,16.10
2024-01-05T12:05:26.133Z,19.20
2024-01-05T12:07:49.200Z,27.50
2024-01-05T12:10:02.741Z,24.70
2024-01-05T12:12:28.413Z,21.40
2024-01-05T12:14:50.800Z,17.30
2024-01-05T12:17:20.506Z,16.20
2024-01-05T12:19:38.344Z,12.90
2024-01-05T12:21:58.396Z,20.00
2024-01-05T12:24:33.121Z,22.70
2024-01-05T12:27:07.604Z,20.10
2024-01-05T12:29:45.178Z,12.30
2024-01-05T12:32:21.477Z,19.40
2024-01-05T12:34:54.859Z,23.60
2024-01-05T12:37:30.130Z,22.10
2024-01-05T12:39:53.853Z,16.20
2024-01-05T12:42:12.300Z,16.80
2024-01-05T12:44:26.780Z,28.00
2024-01-05T12:46:53.070Z,23.60
2024-01-05T12:49:25.358Z,13.50
2024-01-05T12:51:39.441Z,6.60
2024-01-05T12:54:01.598Z,9.10
2024-01-05T12:56:16.584Z,10.60
2024-01-05T12:58:35.879Z,15.10
2024-01-05T13:01:10.034Z,23.50
2024-01-05T13:03:24.227Z,19.60
2024-01-05T13:05:41.719Z,15.30
2024-01-05T13:08:06.869Z,12.40
2024-01-05T13:10:41.169Z,9.50
2024-01-05T13:13:14.911Z,9.80
2024-01-05T13:15:49.613Z,15.40
2024-01-05T13:18:12.691Z,15.10
2024-01-05T13:20:36.473Z,13.20
2024-01-05T13:23:11.997Z,24.10
2024-01-05T13:25:45.934Z,19.60
2024-01-05T13:28:20.396Z,27.70
2024-01-05T13:30:54.814Z,21.90
2024-01-05T13:33:19.843Z,18.50
2024-01-05T13:35:55.289Z,16.60
2024-01-05T13:38:29.350Z,18.40
2024-01-05T13:41:03.762Z,23.10
2024-01-05T13:43:38.881Z,19.50
2024-01-05T13:46:12.947Z,18.30
2024-01-05T13:48:47.837Z,17.50
2024-01-05T13:51:22.128Z,17.10
2024-01-05T13:53:47.963Z,15.50
2024-01-05T13:56:22.522Z,14.30
2024-01-05T13:58:45.374Z,19.60
2024-01-05T14:01:20.163Z,14.80
2024-01-05T14:03:53.904Z,8.30
2024-01-05T14:06:26.997Z,5.90
2024-01-05T14:09:01.877Z,10.80
2024-01-05T14:11:21.714Z,14.80
2024-01-05T14:13:54.241Z,18.50
2024-01-05T14:16:19.861Z,30.80
2024-01-05T14:18:54.371Z,27.20
2024-01-05T14:21:25.035Z,22.60
2024-01-05T14:23:57.960Z,23.00
2024-01-05T14:26:22.095Z,20.80
2024-01-05T14:28:56.393Z,20.50
2024-01-05T14:31:33.129Z,25.50
2024-01-05T14:34:00.134Z,27.50
2024-01-05T14:36:34.059Z,32.40
2024-01-05T14:39:08.095Z,34.70
2024-01-05T14:41:41.813Z,30.10
2024-01-05T14:44:16.305Z,33.20
2024-01-05T14:46:40.011Z,24.90
2024-01-05T14:49:14.162Z,26.10
2024-01-05T14:51:51.395Z,19.20
2024-01-05T14:54:08.682Z,16.50
2024-01-05T14:56:42.469Z,11.60
2024-01-05T14:59:16.555Z,21.60
2024-01-05T15:01:29.789Z,7.60
2024-01-05T15:03:53.649Z,11.80
2024-01-05T15:06:18.892Z,9.50
2024-01-05T15:08:41.874Z,9.50
2024-01-05T15:11:24.467Z,5.10
2024-01-05T15:13:59.226Z,3.60
2024-01-05T15:16:23.953Z,4.00
2024-01-05T15:18:41.203Z,3.10
2024-01-05T15:21:15.954Z,4.50
2024-01-05T15:23:51.016Z,6.80
2024-01-05T15:26:16.421Z,8.80
2024-01-05T15:28:43.545Z,6.50
2024-01-05T15:31:10.857Z,3.40
2024-01-05T15:33:44.425Z,3.50
2024-01-05T15:36:07.949Z,3.00
2024-01-05T15:38:41.161Z,3.20
2024-01-05T15:40:57.510Z,3.50
2024-01-05T15:43:31.626Z,4.00
2024-01-05T15:46:06.688Z,2.90
2024-01-05T15:48:41.408Z,4.60
2024-01-05T15:51:16.439Z,4.20
2024-01-05T15:53:52.417Z,3.70
2024-01-05T15:56:26.609Z,4.30
2024-01-05T15:58:59.977Z,5.50
2024-01-05T16:01:34.276Z,5.70
2024-01-05T16:04:09.256Z,4.00
2024-01-05T16:06:43.439Z,4.40
2024-01-05T16:09:18.626Z,5.80
2024-01-05T16:11:53.183Z,4.50
2024-01-05T16:14:26.682Z,3.80
2024-01-05T16:16:54.632Z,6.10
2024-01-05T16:19:28.583Z,3.90
2024-01-05T16:22:02.115Z,5.30
2024-01-05T16:24:30.269Z,4.80
2024-01-05T16:27:04.720Z,4.00
2024-01-05T16:29:37.942Z,3.90
2024-01-05T16:31:55.837Z,5.60
2024-01-05T16:34:21.687Z,5.00
2024-01-05T16:36:56.249Z,8.10
2024-01-05T16:39:30.801Z,6.80
2024-01-05T16:42:05.695Z,14.90
2024-01-05T16:44:39.616Z,8.80
2024-01-05T16:49:16.497Z,5.70
2024-01-05T16:51:50.359Z,8.80
2024-01-05T16:54:07.063Z,10.50
2024-01-05T16:56:31.399Z,10.50
2024-01-05T16:58:48.182Z,17.80
2024-01-05T17:01:22.706Z,9.80
2024-01-05T17:03:59.296Z,9.20
2024-01-05T17:06:19.992Z,22.00
2024-01-05T17:08:43.996Z,24.90
2024-01-05T17:11:19.215Z,24.00
2024-01-05T17:13:37.192Z,20.30
2024-01-05T17:15:53.351Z,12.60
2024-01-05T17:18:21.550Z,19.60
2024-01-05T17:20:58.221Z,21.80
2024-01-05T17:23:32.664Z,13.60
2024-01-05T17:26:06.555Z,10.20
2024-01-05T17:28:41.432Z,9.00
2024-01-05T17:31:15.882Z,10.60
2024-01-05T17:33:43.757Z,8.60
2024-01-05T17:36:11.942Z,6.70
2024-01-05T17:38:45.662Z,6.70
2024-01-05T17:41:00.831Z,8.40
2024-01-05T17:43:34.744Z,7.10
2024-01-05T17:45:48.453Z,8.40
2024-01-05T17:48:26.823Z,10.60
2024-01-05T17:50:40.109Z,8.40
2024-01-05T17:53:05.630Z,10.50
2024-01-05T17:55:23.243Z,12.50
2024-01-05T17:57:57.637Z,15.30
2024-01-05T18:00:31.272Z,8.30
2024-01-05T18:03:05.746Z,5.50
2024-01-05T18:05:30.698Z,5.50
2024-01-05T18:08:05.294Z,6.40
2024-01-05T18:10:39.600Z,11.40
2024-01-05T18:12:57.577Z,9.60
2024-01-05T18:15:31.866Z,5.70
2024-01-05T18:17:54.454Z,8.50
2024-01-05T18:20:22.163Z,7.40
2024-01-05T18:22:46.221Z,9.50
2024-01-05T18:25:20.134Z,10.20
2024-01-05T18:27:54.785Z,10.70
2024-01-05T18:30:29.132Z,6.50
2024-01-05T18:32:53.944Z,10.70
2024-01-05T18:35:08.803Z,9.80
2024-01-05T18:37:33.827Z,10.80
2024-01-05T18:39:47.416Z,7.20
2024-01-05T18:42:01.212Z,9.30
2024-01-05T18:44:15.983Z,11.00
2024-01-05T18:46:29.832Z,15.80
2024-01-05T18:48:44.667Z,20.10
2024-01-05T18:50:57.792Z,22.70
2024-01-05T18:53:11.469Z,22.30
2024-01-05T18:55:24.990Z,21.70
2024-01-05T18:57:38.149Z,21.60
2024-01-05T18:59:51.368Z,24.50
2024-01-05T19:02:06.392Z,24.70
2024-01-05T19:04:21.575Z,26.60
2024-01-05T19:06:35.258Z,18.60
2024-01-05T19:08:48.630Z,11.10
2024-01-05T19:11:02.715Z,10.00
2024-01-05T19:13:17.320Z,6.20
2024-01-05T19:15:30.262Z,11.10
2024-01-05T19:17:45.416Z,8.90
2024-01-05T19:19:59.035Z,9.60
2024-01-05T19:22:12.865Z,8.20
2024-01-05T19:24:26.471Z,8.70
2024-01-05T19:26:41.479Z,7.10
2024-01-05T19:28:54.565Z,10.60
2024-01-05T19:31:09.013Z,8.70
2024-01-05T19:33:22.746Z,7.90
2024-01-05T19:35:36.764Z,10.90
2024-01-05T19:37:50.437Z,8.80
2024-01-05T19:40:03.736Z,11.10
2024-01-05T19:42:20.390Z,9.80
2024-01-05T19:44:34.443Z,13.40
2024-01-05T19:46:47.368Z,8.50
2024-01-05T19:49:00.708Z,8.20
2024-01-05T19:51:15.162Z,10.30
2024-01-05T19:53:28.043Z,13.20
2024-01-05T19:55:42.109Z,7.70
2024-01-05T19:57:55.291Z,5.80
2024-01-05T20:00:09.686Z,7.40
2024-01-05T20:02:22.960Z,10.40
2024-01-05T20:04:36.313Z,9.60
2024-01-05T20:06:50.517Z,8.50
2024-01-05T20:09:03.598Z,9.40
2024-01-05T20:11:19.139Z,8.50
2024-01-05T20:13:32.870Z,8.50
2024-01-05T20:15:46.495Z,8.90
2024-01-05T20:18:01.225Z,8.10
2024-01-05T20:20:15.750Z,9.70
2024-01-05T20:22:29.006Z,10.10
2024-01-05T20:24:42.078Z,10.10
2024-01-05T20:26:56.803Z,9.00
2024-01-05T20:29:10.186Z,6.60
2024-01-05T20:31:23.817Z,7.60
2024-01-05T20:33:37.499Z,7.00
2024-01-05T20:35:50.819Z,4.50
2024-01-05T20:38:05.413Z,7.20
2024-01-05T20:40:20.376Z,8.60
2024-01-05T20:42:33.341Z,11.10
2024-01-05T20:44:46.913Z,6.10
2024-01-05T20:47:03.512Z,5.10
2024-01-05T20:49:16.798Z,5.80
2024-01-05T20:51:30.284Z,4.60
2024-01-05T20:53:43.387Z,5.80
2024-01-05T20:55:57.624Z,5.60
2024-01-05T20:58:10.905Z,5.10
2024-01-05T21:00:25.030Z,8.00
2024-01-05T21:02:38.134Z,5.50
2024-01-05T21:04:52.757Z,5.00
2024-01-05T21:07:07.133Z,5.30
2024-01-05T21:09:22.047Z,4.50
2024-01-05T21:11:36.127Z,5.90
2024-01-05T21:13:49.278Z,5.60
2024-01-05T21:16:03.679Z,6.40
2024-01-05T21:18:17.564Z,6.80
2024-01-05T21:20:30.926Z,5.00
2024-01-05T21:22:44.294Z,10.40
2024-01-05T21:24:57.513Z,8.70
2024-01-05T21:27:11.946Z,5.70
2024-01-05T21:29:25.263Z,6.10
2024-01-05T21:31:38.470Z,5.70
2024-01-05T21:33:52.032Z,6.40
2024-01-05T21:36:05.483Z,6.60
2024-01-05T21:38:18.925Z,7.70
2024-01-05T21:40:32.814Z,8.70
2024-01-05T21:42:46.162Z,5.60
2024-01-05T21:44:59.334Z,7.10
2024-01-05T21:47:13.137Z,7.80
2024-01-05T21:49:27.275Z,7.30
2024-01-05T21:51:40.736Z,7.60
2024-01-05T21:53:54.358Z,6.80
2024-01-05T21:56:07.746Z,5.60
2024-01-05T21:58:20.899Z,6.60
2024-01-05T22:00:34.460Z,5.50
2024-01-05T22:02:48.698Z,5.70
2024-01-05T22:05:02.930Z,6.30
2024-01-05T22:07:17.008Z,8.20
2024-01-05T22:09:31.195Z,6.70
2024-01-05T22:11:49.020Z,7.80
2024-01-05T22:14:01.972Z,6.70
2024-01-05T22:16:19.663Z,6.40
2024-01-05T22:18:39.970Z,6.70
2024-01-05T22:20:52.867Z,8.10
2024-01-05T22:23:06.885Z,7.70
2024-01-05T22:25:20.009Z,6.30
2024-01-05T22:27:33.529Z,4.30
2024-01-05T22:29:46.952Z,7.30
2024-01-05T22:32:00.569Z,6.60
2024-01-05T22:34:14.390Z,7.90
2024-01-05T22:36:27.680Z,6.30
2024-01-05T22:38:40.799Z,6.30
2024-01-05T22:40:54.159Z,6.30
2024-01-05T22:43:08.371Z,8.50
2024-01-05T22:45:21.798Z,7.70
2024-01-05T22:47:34.853Z,10.20
2024-01-05T22:49:47.976Z,10.30
2024-01-05T22:52:01.427Z,7.50
2024-01-05T22:54:15.173Z,8.40
2024-01-05T22:56:28.268Z,10.00
2024-01-05T22:58:41.624Z,16.30
2024-01-05T23:00:55.404Z,16.30
2024-01-05T23:03:13.308Z,16.00
2024-01-05T23:05:26.618Z,14.50
2024-01-05T23:07:39.728Z,14.20
2024-01-05T23:09:52.743Z,15.90
2024-01-05T23:12:05.908Z,16.00
2024-01-05T23:14:19.680Z,19.20
2024-01-05T23:16:32.938Z,11.30
2024-01-05T23:18:46.173Z,12.20
2024-01-05T23:20:59.547Z,15.20
2024-01-05T23:23:13.640Z,17.30
2024-01-05T23:25:26.859Z,10.80
2024-01-05T23:27:40.289Z,12.00
2024-01-05T23:29:53.633Z,13.20
2024-01-05T23:32:09.500Z,10.00
2024-01-05T23:34:22.588Z,10.20
2024-01-05T23:36:35.912Z,10.70
2024-01-05T23:38:50.679Z,7.70
2024-01-05T23:41:04.338Z,9.00
2024-01-05T23:43:17.322Z,10.10
2024-01-05T23:45:30.588Z,8.70
2024-01-05T23:47:44.731Z,9.60
2024-01-05T23:50:00.530Z,10.50
2024-01-05T23:52:16.454Z,9.20
2024-01-05T23:54:32.147Z,12.10
2024-01-05T23:56:46.343Z,7.20
2024-01-05T23:58:59.828Z,6.40
